Time;durP1;ratioP1;P1;durP2;ratioP2;P2;SDS_P1;SDS_P2;PMS_P1;PMS_P2;Temp;Humidity;BMP_temperature;BMP_pressure;BME280_temperature;BME280_humidity;BME280_pressure;Samples;Min_cycle;Max_cycle;Signal;HPM_P1;HPM_P2
2021/01/16 00:00:32;;;;;;;32.8;18.05;;;;;;;-1.9;87.25293;95919.53;;;;
2021/01/16 00:01:34;;;;;;;32.8;18.05;;;;;;;-1.9;87.25293;95919.53;;;;
2021/01/16 00:02:34;;;;;;;38.95;18.5;;;;;;;-1.97;87.4209;95914.53;;;;
2021/01/16 00:03:35;;;;;;;38.95;18.5;;;;;;;-1.97;87.4209;95914.53;;;;
2021/01/16 00:04:35;;;;;;;38.95;18.5;;;;;;;-1.97;87.4209;95914.53;;;;
2021/01/16 00:05:36;;;;;;;38.95;18.5;;;;;;;-1.97;87.4209;95914.53;;;;
2021/01/16 00:06:38;;;;;;;38.95;18.5;;;;;;;-1.97;87.4209;95914.53;;;;
2021/01/16 00:07:40;;;;;;;38.95;18.5;;;;;;;-1.97;87.4209;95914.53;;;;
2021/01/16 00:08:42;;;;;;;38.95;18.5;;;;;;;-1.97;87.4209;95914.53;;;;
2021/01/16 00:09:42;;;;;;;38.95;18.5;;;;;;;-1.97;87.4209;95914.53;;;;
2021/01/16 00:10:43;;;;;;;38.95;18.5;;;;;;;-1.97;87.4209;95914.53;;;;
2021/01/16 00:11:45;;;;;;;38.95;18.5;;;;;;;-1.97;87.4209;95914.53;;;;
2021/01/16 00:12:47;;;;;;;32.85;17.1;;;;;;;-2.03;87.50293;95912.48;;;;
2021/01/16 00:13:48;;;;;;;32.85;17.1;;;;;;;-2.03;87.50293;95912.48;;;;
2021/01/16 00:14:49;;;;;;;32.85;17.1;;;;;;;-2.03;87.50293;95912.48;;;;
2021/01/16 00:15:49;;;;;;;32.85;17.1;;;;;;;-2.03;87.50293;95912.48;;;;
2021/01/16 00:16:52;;;;;;;32.85;17.1;;;;;;;-2.03;87.50293;95912.48;;;;
2021/01/16 00:17:52;;;;;;;32.85;17.1;;;;;;;-2.03;87.50293;95912.48;;;;
2021/01/16 00:19:00;;;;;;;32.85;17.1;;;;;;;-2.03;87.50293;95912.48;;;;
2021/01/16 00:20:00;;;;;;;32.85;17.1;;;;;;;-2.03;87.50293;95912.48;;;;
2021/01/16 00:21:01;;;;;;;32.85;17.1;;;;;;;-2.03;87.50293;95912.48;;;;
2021/01/16 00:22:02;;;;;;;32.85;17.1;;;;;;;-2.03;87.50293;95912.48;;;;
2021/01/16 00:23:03;;;;;;;35.65;19.05;;;;;;;-2.05;87.69531;95920.53;;;;
2021/01/16 00:24:04;;;;;;;35.65;19.05;;;;;;;-2.05;87.69531;95920.53;;;;
2021/01/16 00:25:05;;;;;;;35.65;19.05;;;;;;;-2.05;87.69531;95920.53;;;;
2021/01/16 00:26:07;;;;;;;35.65;19.05;;;;;;;-2.05;87.69531;95920.53;;;;
2021/01/16 00:27:07;;;;;;;35.65;19.05;;;;;;;-2.05;87.69531;95920.53;;;;
2021/01/16 00:28:08;;;;;;;35.65;19.05;;;;;;;-2.05;87.69531;95920.53;;;;
2021/01/16 00:29:15;;;;;;;35.65;19.05;;;;;;;-2.05;87.69531;95920.53;;;;
2021/01/16 00:30:15;;;;;;;35.65;19.05;;;;;;;-2.05;87.69531;95920.53;;;;
2021/01/16 00:31:19;;;;;;;35.65;19.05;;;;;;;-2.05;87.69531;95920.53;;;;
2021/01/16 00:32:19;;;;;;;35.65;19.05;;;;;;;-2.05;87.69531;95920.53;;;;
2021/01/16 00:33:19;;;;;;;35.65;19.05;;;;;;;-2.05;87.69531;95920.53;;;;
2021/01/16 00:34:22;;;;;;;33.4;17.8;;;;;;;-2.01;87.75488;95918.44;;;;
2021/01/16 00:35:22;;;;;;;33.4;17.8;;;;;;;-2.01;87.75488;95918.44;;;;
2021/01/16 00:36:26;;;;;;;33.4;17.8;;;;;;;-2.01;87.75488;95918.44;;;;
2021/01/16 00:37:26;;;;;;;33.4;17.8;;;;;;;-2.01;87.75488;95918.44;;;;
2021/01/16 00:38:27;;;;;;;33.4;17.8;;;;;;;-2.01;87.75488;95918.44;;;;
2021/01/16 00:39:29;;;;;;;33.4;17.8;;;;;;;-2.01;87.75488;95918.44;;;;
2021/01/16 00:40:30;;;;;;;33.4;17.8;;;;;;;-2.01;87.75488;95918.44;;;;
2021/01/16 00:41:30;;;;;;;33.4;17.8;;;;;;;-2.01;87.75488;95918.44;;;;
2021/01/16 00:42:31;;;;;;;33.4;17.8;;;;;;;-2.01;87.75488;95918.44;;;;
2021/01/16 00:43:31;;;;;;;33.4;17.8;;;;;;;-2.01;87.75488;95918.44;;;;
2021/01/16 00:44:32;;;;;;;34;16.8;;;;;;;-1.98;87.71094;95927.34;;;;
2021/01/16 00:45:33;;;;;;;34;16.8;;;;;;;-1.98;87.71094;95927.34;;;;
2021/01/16 00:46:34;;;;;;;34;16.8;;;;;;;-1.98;87.71094;95927.34;;;;
2021/01/16 00:47:34;;;;;;;34;16.8;;;;;;;-1.98;87.71094;95927.34;;;;
2021/01/16 00:48:35;;;;;;;34;16.8;;;;;;;-1.98;87.71094;95927.34;;;;
2021/01/16 00:49:36;;;;;;;34;16.8;;;;;;;-1.98;87.71094;95927.34;;;;
2021/01/16 00:50:36;;;;;;;34;16.8;;;;;;;-1.98;87.71094;95927.34;;;;
2021/01/16 00:51:37;;;;;;;34;16.8;;;;;;;-1.98;87.71094;95927.34;;;;
2021/01/16 00:52:37;;;;;;;34;16.8;;;;;;;-1.98;87.71094;95927.34;;;;
2021/01/16 00:53:39;;;;;;;34;16.8;;;;;;;-1.98;87.71094;95927.34;;;;
2021/01/16 00:54:39;;;;;;;34;16.8;;;;;;;-1.98;87.71094;95927.34;;;;
2021/01/16 00:55:39;;;;;;;38.74999;18.4;;;;;;;-1.98;87.74219;95932.23;;;;
2021/01/16 00:56:40;;;;;;;38.74999;18.4;;;;;;;-1.98;87.74219;95932.23;;;;
2021/01/16 00:57:41;;;;;;;38.74999;18.4;;;;;;;-1.98;87.74219;95932.23;;;;
2021/01/16 00:58:41;;;;;;;38.74999;18.4;;;;;;;-1.98;87.74219;95932.23;;;;
2021/01/16 00:59:42;;;;;;;38.74999;18.4;;;;;;;-1.98;87.74219;95932.23;;;;
2021/01/16 01:00:42;;;;;;;38.74999;18.4;;;;;;;-1.98;87.74219;95932.23;;;;
2021/01/16 01:01:44;;;;;;;38.74999;18.4;;;;;;;-1.98;87.74219;95932.23;;;;
2021/01/16 01:02:45;;;;;;;38.74999;18.4;;;;;;;-1.98;87.74219;95932.23;;;;
2021/01/16 01:03:45;;;;;;;38.74999;18.4;;;;;;;-1.98;87.74219;95932.23;;;;
2021/01/16 01:04:46;;;;;;;38.74999;18.4;;;;;;;-1.98;87.74219;95932.23;;;;
2021/01/16 01:05:46;;;;;;;33.3;18.05;;;;;;;-1.98;87.88672;95940.56;;;;
2021/01/16 01:06:47;;;;;;;33.3;18.05;;;;;;;-1.98;87.88672;95940.56;;;;
2021/01/16 01:07:48;;;;;;;33.3;18.05;;;;;;;-1.98;87.88672;95940.56;;;;
2021/01/16 01:08:50;;;;;;;33.3;18.05;;;;;;;-1.98;87.88672;95940.56;;;;
2021/01/16 01:09:51;;;;;;;33.3;18.05;;;;;;;-1.98;87.88672;95940.56;;;;
2021/01/16 01:10:51;;;;;;;33.3;18.05;;;;;;;-1.98;87.88672;95940.56;;;;
2021/01/16 01:11:52;;;;;;;33.3;18.05;;;;;;;-1.98;87.88672;95940.56;;;;
2021/01/16 01:12:53;;;;;;;33.3;18.05;;;;;;;-1.98;87.88672;95940.56;;;;
2021/01/16 01:13:53;;;;;;;33.3;18.05;;;;;;;-1.98;87.88672;95940.56;;;;
2021/01/16 01:14:54;;;;;;;33.3;18.05;;;;;;;-1.98;87.88672;95940.56;;;;
2021/01/16 01:15:54;;;;;;;33.3;18.05;;;;;;;-1.98;87.88672;95940.56;;;;
2021/01/16 01:16:55;;;;;;;32.14999;16.75;;;;;;;-1.97;87.77539;95947.55;;;;
2021/01/16 01:17:55;;;;;;;32.14999;16.75;;;;;;;-1.97;87.77539;95947.55;;;;
2021/01/16 01:18:58;;;;;;;32.14999;16.75;;;;;;;-1.97;87.77539;95947.55;;;;
2021/01/16 01:19:58;;;;;;;32.14999;16.75;;;;;;;-1.97;87.77539;95947.55;;;;
2021/01/16 01:20:59;;;;;;;32.14999;16.75;;;;;;;-1.97;87.77539;95947.55;;;;
2021/01/16 01:21:59;;;;;;;32.14999;16.75;;;;;;;-1.97;87.77539;95947.55;;;;
2021/01/16 01:23:00;;;;;;;32.14999;16.75;;;;;;;-1.97;87.77539;95947.55;;;;
2021/01/16 01:24:01;;;;;;;32.14999;16.75;;;;;;;-1.97;87.77539;95947.55;;;;
2021/01/16 01:25:02;;;;;;;32.14999;16.75;;;;;;;-1.97;87.77539;95947.55;;;;
2021/01/16 01:26:04;;;;;;;32.14999;16.75;;;;;;;-1.97;87.77539;95947.55;;;;
2021/01/16 01:27:05;;;;;;;34.45;17.8;;;;;;;-1.9;87.83203;95950.86;;;;
2021/01/16 01:28:06;;;;;;;34.45;17.8;;;;;;;-1.9;87.83203;95950.86;;;;
2021/01/16 01:29:07;;;;;;;34.45;17.8;;;;;;;-1.9;87.83203;95950.86;;;;
2021/01/16 01:30:07;;;;;;;34.45;17.8;;;;;;;-1.9;87.83203;95950.86;;;;
2021/01/16 01:31:10;;;;;;;34.45;17.8;;;;;;;-1.9;87.83203;95950.86;;;;
2021/01/16 01:32:10;;;;;;;34.45;17.8;;;;;;;-1.9;87.83203;95950.86;;;;
2021/01/16 01:33:10;;;;;;;34.45;17.8;;;;;;;-1.9;87.83203;95950.86;;;;
2021/01/16 01:34:15;;;;;;;34.45;17.8;;;;;;;-1.9;87.83203;95950.86;;;;
2021/01/16 01:35:17;;;;;;;34.45;17.8;;;;;;;-1.9;87.83203;95950.86;;;;
2021/01/16 01:36:18;;;;;;;34.45;17.8;;;;;;;-1.9;87.83203;95950.86;;;;
2021/01/16 01:37:19;;;;;;;34.45;17.8;;;;;;;-1.9;87.83203;95950.86;;;;
2021/01/16 01:38:19;;;;;;;33.2;17.8;;;;;;;-1.89;87.58398;95945.09;;;;
2021/01/16 01:39:20;;;;;;;33.2;17.8;;;;;;;-1.89;87.58398;95945.09;;;;
2021/01/16 01:40:21;;;;;;;33.2;17.8;;;;;;;-1.89;87.58398;95945.09;;;;
2021/01/16 01:41:23;;;;;;;33.2;17.8;;;;;;;-1.89;87.58398;95945.09;;;;
2021/01/16 01:42:24;;;;;;;33.2;17.8;;;;;;;-1.89;87.58398;95945.09;;;;
2021/01/16 01:43:24;;;;;;;33.2;17.8;;;;;;;-1.89;87.58398;95945.09;;;;
2021/01/16 01:44:25;;;;;;;33.2;17.8;;;;;;;-1.89;87.58398;95945.09;;;;
2021/01/16 01:45:26;;;;;;;33.2;17.8;;;;;;;-1.89;87.58398;95945.09;;;;
2021/01/16 01:46:27;;;;;;;33.2;17.8;;;;;;;-1.89;87.58398;95945.09;;;;
2021/01/16 01:47:27;;;;;;;33.2;17.8;;;;;;;-1.89;87.58398;95945.09;;;;
2021/01/16 01:48:28;;;;;;;34.5;18;;;;;;;-1.95;87.61328;95949.14;;;;
2021/01/16 01:49:29;;;;;;;34.5;18;;;;;;;-1.95;87.61328;95949.14;;;;
2021/01/16 01:50:29;;;;;;;34.5;18;;;;;;;-1.95;87.61328;95949.14;;;;
2021/01/16 01:51:30;;;;;;;34.5;18;;;;;;;-1.95;87.61328;95949.14;;;;
2021/01/16 01:52:33;;;;;;;34.5;18;;;;;;;-1.95;87.61328;95949.14;;;;
2021/01/16 01:53:34;;;;;;;34.5;18;;;;;;;-1.95;87.61328;95949.14;;;;
2021/01/16 01:54:36;;;;;;;34.5;18;;;;;;;-1.95;87.61328;95949.14;;;;
2021/01/16 01:55:37;;;;;;;34.5;18;;;;;;;-1.95;87.61328;95949.14;;;;
2021/01/16 01:56:40;;;;;;;34.5;18;;;;;;;-1.95;87.61328;95949.14;;;;
2021/01/16 01:57:42;;;;;;;34.5;18;;;;;;;-1.95;87.61328;95949.14;;;;
2021/01/16 01:58:45;;;;;;;34.5;18;;;;;;;-1.95;87.61328;95949.14;;;;
2021/01/16 01:59:48;;;;;;;30.5;16.9;;;;;;;-2.03;87.69141;95950.33;;;;
2021/01/16 02:00:51;;;;;;;30.5;16.9;;;;;;;-2.03;87.69141;95950.33;;;;
2021/01/16 02:01:53;;;;;;;30.5;16.9;;;;;;;-2.03;87.69141;95950.33;;;;
2021/01/16 02:02:57;;;;;;;30.5;16.9;;;;;;;-2.03;87.69141;95950.33;;;;
2021/01/16 02:04:00;;;;;;;30.5;16.9;;;;;;;-2.03;87.69141;95950.33;;;;
2021/01/16 02:05:03;;;;;;;30.5;16.9;;;;;;;-2.03;87.69141;95950.33;;;;
2021/01/16 02:06:06;;;;;;;30.5;16.9;;;;;;;-2.03;87.69141;95950.33;;;;
2021/01/16 02:07:07;;;;;;;30.5;16.9;;;;;;;-2.03;87.69141;95950.33;;;;
2021/01/16 02:08:26;;;;;;;30.5;16.9;;;;;;;-2.03;87.69141;95950.33;;;;
2021/01/16 02:09:26;;;;;;;30.5;16.9;;;;;;;-2.03;87.69141;95950.33;;;;
2021/01/16 02:10:27;;;;;;;32.85;17.75;;;;;;;-2.06;87.93359;95941.37;;;;
2021/01/16 02:11:28;;;;;;;32.85;17.75;;;;;;;-2.06;87.93359;95941.37;;;;
2021/01/16 02:12:28;;;;;;;32.85;17.75;;;;;;;-2.06;87.93359;95941.37;;;;
2021/01/16 02:13:29;;;;;;;32.85;17.75;;;;;;;-2.06;87.93359;95941.37;;;;
2021/01/16 02:14:29;;;;;;;32.85;17.75;;;;;;;-2.06;87.93359;95941.37;;;;
2021/01/16 02:15:34;;;;;;;32.85;17.75;;;;;;;-2.06;87.93359;95941.37;;;;
2021/01/16 02:16:40;;;;;;;32.85;17.75;;;;;;;-2.06;87.93359;95941.37;;;;
2021/01/16 02:17:46;;;;;;;32.85;17.75;;;;;;;-2.06;87.93359;95941.37;;;;
2021/01/16 02:18:53;;;;;;;32.85;17.75;;;;;;;-2.06;87.93359;95941.37;;;;
2021/01/16 02:19:57;;;;;;;32.85;17.75;;;;;;;-2.06;87.93359;95941.37;;;;
2021/01/16 02:21:08;;;;;;;33.15;17.8;;;;;;;-2.07;87.98145;95931.78;;;;
2021/01/16 02:22:11;;;;;;;33.15;17.8;;;;;;;-2.07;87.98145;95931.78;;;;
2021/01/16 02:23:14;;;;;;;33.15;17.8;;;;;;;-2.07;87.98145;95931.78;;;;
2021/01/16 02:24:30;;;;;;;33.15;17.8;;;;;;;-2.07;87.98145;95931.78;;;;
2021/01/16 02:25:38;;;;;;;33.15;17.8;;;;;;;-2.07;87.98145;95931.78;;;;
2021/01/16 02:26:56;;;;;;;33.15;17.8;;;;;;;-2.07;87.98145;95931.78;;;;
2021/01/16 02:28:08;;;;;;;33.15;17.8;;;;;;;-2.07;87.98145;95931.78;;;;
2021/01/16 02:29:09;;;;;;;33.15;17.8;;;;;;;-2.07;87.98145;95931.78;;;;
2021/01/16 02:30:10;;;;;;;33.15;17.8;;;;;;;-2.07;87.98145;95931.78;;;;
2021/01/16 02:31:12;;;;;;;29.99999;16.2;;;;;;;-2.07;88.0127;95932.17;;;;
2021/01/16 02:32:14;;;;;;;29.99999;16.2;;;;;;;-2.07;88.0127;95932.17;;;;
2021/01/16 02:33:16;;;;;;;29.99999;16.2;;;;;;;-2.07;88.0127;95932.17;;;;
2021/01/16 02:34:21;;;;;;;29.99999;16.2;;;;;;;-2.07;88.0127;95932.17;;;;
2021/01/16 02:35:26;;;;;;;29.99999;16.2;;;;;;;-2.07;88.0127;95932.17;;;;
2021/01/16 02:36:28;;;;;;;29.99999;16.2;;;;;;;-2.07;88.0127;95932.17;;;;
2021/01/16 02:37:46;;;;;;;29.99999;16.2;;;;;;;-2.07;88.0127;95932.17;;;;
2021/01/16 02:39:07;;;;;;;29.99999;16.2;;;;;;;-2.07;88.0127;95932.17;;;;
2021/01/16 02:40:13;;;;;;;29.99999;16.2;;;;;;;-2.07;88.0127;95932.17;;;;
2021/01/16 02:41:15;;;;;;;29.99999;16.2;;;;;;;-2.07;88.0127;95932.17;;;;
2021/01/16 02:42:32;;;;;;;31.05;16.7;;;;;;;-2.05;87.83008;95934.19;;;;
2021/01/16 02:43:42;;;;;;;31.05;16.7;;;;;;;-2.05;87.83008;95934.19;;;;
2021/01/16 02:44:47;;;;;;;31.05;16.7;;;;;;;-2.05;87.83008;95934.19;;;;
2021/01/16 02:45:57;;;;;;;31.05;16.7;;;;;;;-2.05;87.83008;95934.19;;;;
2021/01/16 02:47:13;;;;;;;31.05;16.7;;;;;;;-2.05;87.83008;95934.19;;;;
2021/01/16 02:48:35;;;;;;;31.05;16.7;;;;;;;-2.05;87.83008;95934.19;;;;
2021/01/16 02:49:48;;;;;;;31.05;16.7;;;;;;;-2.05;87.83008;95934.19;;;;
2021/01/16 02:50:52;;;;;;;31.05;16.7;;;;;;;-2.05;87.83008;95934.19;;;;
2021/01/16 02:51:54;;;;;;;31.05;16.7;;;;;;;-2.05;87.83008;95934.19;;;;
2021/01/16 02:53:03;;;;;;;32.75;17.2;;;;;;;-2.05;87.83008;95939.98;;;;
2021/01/16 02:54:07;;;;;;;32.75;17.2;;;;;;;-2.05;87.83008;95939.98;;;;
2021/01/16 02:55:10;;;;;;;32.75;17.2;;;;;;;-2.05;87.83008;95939.98;;;;
2021/01/16 02:56:11;;;;;;;32.75;17.2;;;;;;;-2.05;87.83008;95939.98;;;;
2021/01/16 02:57:16;;;;;;;32.75;17.2;;;;;;;-2.05;87.83008;95939.98;;;;
2021/01/16 02:58:17;;;;;;;32.75;17.2;;;;;;;-2.05;87.83008;95939.98;;;;
2021/01/16 02:59:18;;;;;;;32.75;17.2;;;;;;;-2.05;87.83008;95939.98;;;;
2021/01/16 03:00:19;;;;;;;32.75;17.2;;;;;;;-2.05;87.83008;95939.98;;;;
2021/01/16 03:01:22;;;;;;;32.75;17.2;;;;;;;-2.05;87.83008;95939.98;;;;
2021/01/16 03:02:23;;;;;;;32.75;17.2;;;;;;;-2.05;87.83008;95939.98;;;;
2021/01/16 03:03:23;;;;;;;29.95;15.25;;;;;;;-2.08;87.87598;95929.67;;;;
2021/01/16 03:04:24;;;;;;;29.95;15.25;;;;;;;-2.08;87.87598;95929.67;;;;
2021/01/16 03:05:24;;;;;;;29.95;15.25;;;;;;;-2.08;87.87598;95929.67;;;;
2021/01/16 03:06:24;;;;;;;29.95;15.25;;;;;;;-2.08;87.87598;95929.67;;;;
2021/01/16 03:07:25;;;;;;;29.95;15.25;;;;;;;-2.08;87.87598;95929.67;;;;
2021/01/16 03:08:27;;;;;;;29.95;15.25;;;;;;;-2.08;87.87598;95929.67;;;;
2021/01/16 03:09:28;;;;;;;29.95;15.25;;;;;;;-2.08;87.87598;95929.67;;;;
2021/01/16 03:10:30;;;;;;;29.95;15.25;;;;;;;-2.08;87.87598;95929.67;;;;
2021/01/16 03:11:33;;;;;;;29.95;15.25;;;;;;;-2.08;87.87598;95929.67;;;;
2021/01/16 03:12:34;;;;;;;29.95;15.25;;;;;;;-2.08;87.87598;95929.67;;;;
2021/01/16 03:13:35;;;;;;;29.95;15.25;;;;;;;-2.08;87.87598;95929.67;;;;
2021/01/16 03:14:36;;;;;;;29.15;15.75;;;;;;;-2.08;88.09277;95937.61;;;;
2021/01/16 03:15:38;;;;;;;29.15;15.75;;;;;;;-2.08;88.09277;95937.61;;;;
2021/01/16 03:16:41;;;;;;;29.15;15.75;;;;;;;-2.08;88.09277;95937.61;;;;
2021/01/16 03:17:57;;;;;;;29.15;15.75;;;;;;;-2.08;88.09277;95937.61;;;;
2021/01/16 03:18:58;;;;;;;29.15;15.75;;;;;;;-2.08;88.09277;95937.61;;;;
2021/01/16 03:20:02;;;;;;;29.15;15.75;;;;;;;-2.08;88.09277;95937.61;;;;
2021/01/16 03:21:03;;;;;;;29.15;15.75;;;;;;;-2.08;88.09277;95937.61;;;;
2021/01/16 03:22:04;;;;;;;29.15;15.75;;;;;;;-2.08;88.09277;95937.61;;;;
2021/01/16 03:23:15;;;;;;;29.15;15.75;;;;;;;-2.08;88.09277;95937.61;;;;
2021/01/16 03:24:16;;;;;;;29.15;15.75;;;;;;;-2.08;88.09277;95937.61;;;;
2021/01/16 03:25:16;;;;;;;30.45001;15.65;;;;;;;-2.06;88.03711;95942.69;;;;
2021/01/16 03:26:18;;;;;;;30.45001;15.65;;;;;;;-2.06;88.03711;95942.69;;;;
2021/01/16 03:27:19;;;;;;;30.45001;15.65;;;;;;;-2.06;88.03711;95942.69;;;;
2021/01/16 03:28:21;;;;;;;30.45001;15.65;;;;;;;-2.06;88.03711;95942.69;;;;
2021/01/16 03:29:21;;;;;;;30.45001;15.65;;;;;;;-2.06;88.03711;95942.69;;;;
2021/01/16 03:30:22;;;;;;;30.45001;15.65;;;;;;;-2.06;88.03711;95942.69;;;;
2021/01/16 03:31:24;;;;;;;30.45001;15.65;;;;;;;-2.06;88.03711;95942.69;;;;
2021/01/16 03:32:24;;;;;;;30.45001;15.65;;;;;;;-2.06;88.03711;95942.69;;;;
2021/01/16 03:33:25;;;;;;;30.45001;15.65;;;;;;;-2.06;88.03711;95942.69;;;;
2021/01/16 03:34:25;;;;;;;30.45001;15.65;;;;;;;-2.06;88.03711;95942.69;;;;
2021/01/16 03:35:26;;;;;;;30.6;15.85;;;;;;;-2.06;88.06641;95939.62;;;;
2021/01/16 03:36:27;;;;;;;30.6;15.85;;;;;;;-2.06;88.06641;95939.62;;;;
2021/01/16 03:37:27;;;;;;;30.6;15.85;;;;;;;-2.06;88.06641;95939.62;;;;
2021/01/16 03:38:28;;;;;;;30.6;15.85;;;;;;;-2.06;88.06641;95939.62;;;;
2021/01/16 03:39:28;;;;;;;30.6;15.85;;;;;;;-2.06;88.06641;95939.62;;;;
2021/01/16 03:40:29;;;;;;;30.6;15.85;;;;;;;-2.06;88.06641;95939.62;;;;
2021/01/16 03:41:29;;;;;;;30.6;15.85;;;;;;;-2.06;88.06641;95939.62;;;;
2021/01/16 03:42:30;;;;;;;30.6;15.85;;;;;;;-2.06;88.06641;95939.62;;;;
2021/01/16 03:43:30;;;;;;;30.6;15.85;;;;;;;-2.06;88.06641;95939.62;;;;
2021/01/16 03:44:31;;;;;;;30.6;15.85;;;;;;;-2.06;88.06641;95939.62;;;;
2021/01/16 03:45:31;;;;;;;30.6;15.85;;;;;;;-2.06;88.06641;95939.62;;;;
2021/01/16 03:46:32;;;;;;;31.1;15.25;;;;;;;-2.14;88.1123;95935.47;;;;
2021/01/16 03:47:32;;;;;;;31.1;15.25;;;;;;;-2.14;88.1123;95935.47;;;;
2021/01/16 03:48:35;;;;;;;31.1;15.25;;;;;;;-2.14;88.1123;95935.47;;;;
2021/01/16 03:49:35;;;;;;;31.1;15.25;;;;;;;-2.14;88.1123;95935.47;;;;
2021/01/16 03:50:36;;;;;;;31.1;15.25;;;;;;;-2.14;88.1123;95935.47;;;;
2021/01/16 03:51:36;;;;;;;31.1;15.25;;;;;;;-2.14;88.1123;95935.47;;;;
2021/01/16 03:52:37;;;;;;;31.1;15.25;;;;;;;-2.14;88.1123;95935.47;;;;
2021/01/16 03:53:39;;;;;;;31.1;15.25;;;;;;;-2.14;88.1123;95935.47;;;;
2021/01/16 03:54:40;;;;;;;31.1;15.25;;;;;;;-2.14;88.1123;95935.47;;;;
2021/01/16 03:55:40;;;;;;;31.1;15.25;;;;;;;-2.14;88.1123;95935.47;;;;
2021/01/16 03:56:41;;;;;;;28.9;15.8;;;;;;;-2.19;88.38184;95929.77;;;;
2021/01/16 03:57:42;;;;;;;28.9;15.8;;;;;;;-2.19;88.38184;95929.77;;;;
2021/01/16 03:58:42;;;;;;;28.9;15.8;;;;;;;-2.19;88.38184;95929.77;;;;
2021/01/16 03:59:43;;;;;;;28.9;15.8;;;;;;;-2.19;88.38184;95929.77;;;;
2021/01/16 04:00:43;;;;;;;28.9;15.8;;;;;;;-2.19;88.38184;95929.77;;;;
2021/01/16 04:01:44;;;;;;;28.9;15.8;;;;;;;-2.19;88.38184;95929.77;;;;
2021/01/16 04:02:46;;;;;;;28.9;15.8;;;;;;;-2.19;88.38184;95929.77;;;;
2021/01/16 04:03:46;;;;;;;28.9;15.8;;;;;;;-2.19;88.38184;95929.77;;;;
2021/01/16 04:04:47;;;;;;;28.9;15.8;;;;;;;-2.19;88.38184;95929.77;;;;
2021/01/16 04:05:48;;;;;;;28.9;15.8;;;;;;;-2.19;88.38184;95929.77;;;;
2021/01/16 04:06:49;;;;;;;28.9;15.8;;;;;;;-2.19;88.38184;95929.77;;;;
2021/01/16 04:07:50;;;;;;;28.9;15;;;;;;;-2.19;88.56836;95931.16;;;;
2021/01/16 04:08:51;;;;;;;28.9;15;;;;;;;-2.19;88.56836;95931.16;;;;
2021/01/16 04:09:51;;;;;;;28.9;15;;;;;;;-2.19;88.56836;95931.16;;;;
2021/01/16 04:10:51;;;;;;;28.9;15;;;;;;;-2.19;88.56836;95931.16;;;;
2021/01/16 04:11:52;;;;;;;28.9;15;;;;;;;-2.19;88.56836;95931.16;;;;
2021/01/16 04:12:53;;;;;;;28.9;15;;;;;;;-2.19;88.56836;95931.16;;;;
2021/01/16 04:13:53;;;;;;;28.9;15;;;;;;;-2.19;88.56836;95931.16;;;;
2021/01/16 04:14:54;;;;;;;28.9;15;;;;;;;-2.19;88.56836;95931.16;;;;
2021/01/16 04:15:55;;;;;;;28.9;15;;;;;;;-2.19;88.56836;95931.16;;;;
2021/01/16 04:16:56;;;;;;;28.9;15;;;;;;;-2.19;88.56836;95931.16;;;;
2021/01/16 04:17:56;;;;;;;28.9;15.45;;;;;;;-2.14;88.58789;95928.01;;;;
2021/01/16 04:18:57;;;;;;;28.9;15.45;;;;;;;-2.14;88.58789;95928.01;;;;
2021/01/16 04:19:57;;;;;;;28.9;15.45;;;;;;;-2.14;88.58789;95928.01;;;;
2021/01/16 04:20:58;;;;;;;28.9;15.45;;;;;;;-2.14;88.58789;95928.01;;;;
2021/01/16 04:21:58;;;;;;;28.9;15.45;;;;;;;-2.14;88.58789;95928.01;;;;
2021/01/16 04:22:59;;;;;;;28.9;15.45;;;;;;;-2.14;88.58789;95928.01;;;;
2021/01/16 04:23:59;;;;;;;28.9;15.45;;;;;;;-2.14;88.58789;95928.01;;;;
2021/01/16 04:25:00;;;;;;;28.9;15.45;;;;;;;-2.14;88.58789;95928.01;;;;
2021/01/16 04:26:00;;;;;;;28.9;15.45;;;;;;;-2.14;88.58789;95928.01;;;;
2021/01/16 04:27:01;;;;;;;28.9;15.45;;;;;;;-2.14;88.58789;95928.01;;;;
2021/01/16 04:28:01;;;;;;;28.9;15.45;;;;;;;-2.14;88.58789;95928.01;;;;
2021/01/16 04:29:02;;;;;;;29.05;14.55;;;;;;;-2.17;88.64453;95934.44;;;;
2021/01/16 04:30:03;;;;;;;29.05;14.55;;;;;;;-2.17;88.64453;95934.44;;;;
2021/01/16 04:31:05;;;;;;;29.05;14.55;;;;;;;-2.17;88.64453;95934.44;;;;
2021/01/16 04:32:05;;;;;;;29.05;14.55;;;;;;;-2.17;88.64453;95934.44;;;;
2021/01/16 04:33:06;;;;;;;29.05;14.55;;;;;;;-2.17;88.64453;95934.44;;;;
2021/01/16 04:34:07;;;;;;;29.05;14.55;;;;;;;-2.17;88.64453;95934.44;;;;
2021/01/16 04:35:07;;;;;;;29.05;14.55;;;;;;;-2.17;88.64453;95934.44;;;;
2021/01/16 04:36:09;;;;;;;29.05;14.55;;;;;;;-2.17;88.64453;95934.44;;;;
2021/01/16 04:37:10;;;;;;;29.05;14.55;;;;;;;-2.17;88.64453;95934.44;;;;
2021/01/16 04:38:10;;;;;;;29.05;14.55;;;;;;;-2.17;88.64453;95934.44;;;;
2021/01/16 04:39:11;;;;;;;28.35;15.3;;;;;;;-2.18;88.73535;95936.33;;;;
2021/01/16 04:40:12;;;;;;;28.35;15.3;;;;;;;-2.18;88.73535;95936.33;;;;
2021/01/16 04:41:13;;;;;;;28.35;15.3;;;;;;;-2.18;88.73535;95936.33;;;;
2021/01/16 04:42:15;;;;;;;28.35;15.3;;;;;;;-2.18;88.73535;95936.33;;;;
2021/01/16 04:43:16;;;;;;;28.35;15.3;;;;;;;-2.18;88.73535;95936.33;;;;
2021/01/16 04:44:17;;;;;;;28.35;15.3;;;;;;;-2.18;88.73535;95936.33;;;;
2021/01/16 04:45:20;;;;;;;28.35;15.3;;;;;;;-2.18;88.73535;95936.33;;;;
2021/01/16 04:46:21;;;;;;;28.35;15.3;;;;;;;-2.18;88.73535;95936.33;;;;
2021/01/16 04:47:23;;;;;;;28.35;15.3;;;;;;;-2.18;88.73535;95936.33;;;;
2021/01/16 04:48:26;;;;;;;28.35;15.3;;;;;;;-2.18;88.73535;95936.33;;;;
2021/01/16 04:49:29;;;;;;;28.35;15.3;;;;;;;-2.18;88.73535;95936.33;;;;
2021/01/16 04:50:30;;;;;;;28.05;15.2;;;;;;;-2.19;88.80566;95941.25;;;;
2021/01/16 04:51:32;;;;;;;28.05;15.2;;;;;;;-2.19;88.80566;95941.25;;;;
2021/01/16 04:52:35;;;;;;;28.05;15.2;;;;;;;-2.19;88.80566;95941.25;;;;
2021/01/16 04:53:37;;;;;;;28.05;15.2;;;;;;;-2.19;88.80566;95941.25;;;;
2021/01/16 04:54:40;;;;;;;28.05;15.2;;;;;;;-2.19;88.80566;95941.25;;;;
2021/01/16 04:55:43;;;;;;;28.05;15.2;;;;;;;-2.19;88.80566;95941.25;;;;
2021/01/16 04:56:46;;;;;;;28.05;15.2;;;;;;;-2.19;88.80566;95941.25;;;;
2021/01/16 04:57:46;;;;;;;28.05;15.2;;;;;;;-2.19;88.80566;95941.25;;;;
2021/01/16 04:58:48;;;;;;;28.05;15.2;;;;;;;-2.19;88.80566;95941.25;;;;
2021/01/16 04:59:48;;;;;;;28.05;15.2;;;;;;;-2.19;88.80566;95941.25;;;;
2021/01/16 05:00:51;;;;;;;26;13.3;;;;;;;-2.18;88.74414;95938.55;;;;
2021/01/16 05:01:53;;;;;;;26;13.3;;;;;;;-2.18;88.74414;95938.55;;;;
2021/01/16 05:02:57;;;;;;;26;13.3;;;;;;;-2.18;88.74414;95938.55;;;;
2021/01/16 05:04:04;;;;;;;26;13.3;;;;;;;-2.18;88.74414;95938.55;;;;
2021/01/16 05:05:07;;;;;;;26;13.3;;;;;;;-2.18;88.74414;95938.55;;;;
2021/01/16 05:06:10;;;;;;;26;13.3;;;;;;;-2.18;88.74414;95938.55;;;;
2021/01/16 05:07:12;;;;;;;26;13.3;;;;;;;-2.18;88.74414;95938.55;;;;
2021/01/16 05:08:13;;;;;;;26;13.3;;;;;;;-2.18;88.74414;95938.55;;;;
2021/01/16 05:09:14;;;;;;;26;13.3;;;;;;;-2.18;88.74414;95938.55;;;;
2021/01/16 05:10:15;;;;;;;26;13.3;;;;;;;-2.18;88.74414;95938.55;;;;
2021/01/16 05:11:18;;;;;;;26.5;14.45;;;;;;;-2.23;88.84766;95937.22;;;;
2021/01/16 05:12:38;;;;;;;26.5;14.45;;;;;;;-2.23;88.84766;95937.22;;;;
2021/01/16 05:13:57;;;;;;;26.5;14.45;;;;;;;-2.23;88.84766;95937.22;;;;
2021/01/16 05:15:10;;;;;;;26.5;14.45;;;;;;;-2.23;88.84766;95937.22;;;;
2021/01/16 05:16:19;;;;;;;26.5;14.45;;;;;;;-2.23;88.84766;95937.22;;;;
2021/01/16 05:17:25;;;;;;;26.5;14.45;;;;;;;-2.23;88.84766;95937.22;;;;
2021/01/16 05:18:27;;;;;;;26.5;14.45;;;;;;;-2.23;88.84766;95937.22;;;;
2021/01/16 05:19:29;;;;;;;26.5;14.45;;;;;;;-2.23;88.84766;95937.22;;;;
2021/01/16 05:20:32;;;;;;;26.5;14.45;;;;;;;-2.23;88.84766;95937.22;;;;
2021/01/16 05:21:34;;;;;;;26.5;14.45;;;;;;;-2.23;88.84766;95937.22;;;;
2021/01/16 05:22:35;;;;;;;29.05;15.25;;;;;;;-2.2;89.03125;95936.95;;;;
2021/01/16 05:23:36;;;;;;;29.05;15.25;;;;;;;-2.2;89.03125;95936.95;;;;
2021/01/16 05:24:41;;;;;;;29.05;15.25;;;;;;;-2.2;89.03125;95936.95;;;;
2021/01/16 05:25:42;;;;;;;29.05;15.25;;;;;;;-2.2;89.03125;95936.95;;;;
2021/01/16 05:26:45;;;;;;;29.05;15.25;;;;;;;-2.2;89.03125;95936.95;;;;
2021/01/16 05:28:03;;;;;;;29.05;15.25;;;;;;;-2.2;89.03125;95936.95;;;;
2021/01/16 05:29:06;;;;;;;29.05;15.25;;;;;;;-2.2;89.03125;95936.95;;;;
2021/01/16 05:30:08;;;;;;;29.05;15.25;;;;;;;-2.2;89.03125;95936.95;;;;
2021/01/16 05:31:10;;;;;;;29.05;15.25;;;;;;;-2.2;89.03125;95936.95;;;;
2021/01/16 05:32:10;;;;;;;29.05;15.25;;;;;;;-2.2;89.03125;95936.95;;;;
2021/01/16 05:33:13;;;;;;;28.4;14.65;;;;;;;-2.14;88.61914;95947.45;;;;
2021/01/16 05:34:14;;;;;;;28.4;14.65;;;;;;;-2.14;88.61914;95947.45;;;;
2021/01/16 05:35:15;;;;;;;28.4;14.65;;;;;;;-2.14;88.61914;95947.45;;;;
2021/01/16 05:36:17;;;;;;;28.4;14.65;;;;;;;-2.14;88.61914;95947.45;;;;
2021/01/16 05:37:18;;;;;;;28.4;14.65;;;;;;;-2.14;88.61914;95947.45;;;;
2021/01/16 05:38:18;;;;;;;28.4;14.65;;;;;;;-2.14;88.61914;95947.45;;;;
2021/01/16 05:39:24;;;;;;;28.4;14.65;;;;;;;-2.14;88.61914;95947.45;;;;
2021/01/16 05:40:29;;;;;;;28.4;14.65;;;;;;;-2.14;88.61914;95947.45;;;;
2021/01/16 05:41:29;;;;;;;28.4;14.65;;;;;;;-2.14;88.61914;95947.45;;;;
2021/01/16 05:42:30;;;;;;;0;0;;;;;;;0;0;0;;;;
2021/01/16 05:43:31;;;;;;;0;0;;;;;;;0;0;0;;;;
2021/01/16 05:44:32;;;;;;;0;0;;;;;;;0;0;0;;;;
2021/01/16 05:45:34;;;;;;;0;0;;;;;;;0;0;0;;;;
2021/01/16 05:46:36;;;;;;;0;0;;;;;;;0;0;0;;;;
2021/01/16 05:47:41;;;;;;;0;0;;;;;;;0;0;0;;;;
2021/01/16 05:48:43;;;;;;;0;0;;;;;;;0;0;0;;;;
2021/01/16 05:49:44;;;;;;;0;0;;;;;;;0;0;0;;;;
2021/01/16 05:50:45;;;;;;;0;0;;;;;;;0;0;0;;;;